Hong Hing — 3FWZ4 — position and weather

sailwx.info

Track history (hours):
 
Tides and Currents Weather Stations Pressure Air Temp Water Temp Dewpoint Dewpoint Depression Visibility Wind Speed Wind Dir Waves Ship Positions

Hong Hing

Last reported at 2018-Feb-21 08:52 UTC. Time now 2018-Feb-21 14:36 UTC.
Position N 01°16' E 104°00'.

Length 225 m; draft 13.1 m.

Type: Cargo ship. MMSI: 356791000.

Date/timePositionNaut miles runAvg speedWind from/ knotsBaromVisibWave heightAir tempDewpointWater temp
2018-Feb-21 08:52N 01°16' E 104°00'1 0.1
2018-Feb-21 01:56N 01°17' E 104°00'1 2.0
2018-Feb-21 01:20N 01°17' E 103°59'2 6.2
2018-Feb-21 01:00N 01°16' E 103°57'2 4.0
2018-Feb-21 00:30N 01°14' E 103°57'3 5.6
2018-Feb-21 00:00N 01°13' E 103°54'4 7.7
2018-Feb-20 23:29N 01°11' E 103°50'4 8.3
2018-Feb-20 23:00N 01°09' E 103°47'5 9.6
2018-Feb-20 22:30N 01°05' E 103°44'4 8.9
2018-Feb-20 22:00N 01°03' E 103°40'5 9.9
2018-Feb-20 21:30N 01°05' E 103°35'510.8
2018-Feb-20 21:00N 01°07' E 103°30'  
Track history (hours):
 
Tides and Currents Weather Stations Pressure Air Temp Water Temp Dewpoint Dewpoint Depression Visibility Wind Speed Wind Dir Waves Ship Positions

Hong Hing

Last reported at 2018-Feb-21 08:52 UTC. Time now 2018-Feb-21 14:36 UTC.
Position N 01°16' E 104°00'.

Length 225 m; draft 13.1 m.

Type: Cargo ship. MMSI: 356791000.

Date/timePositionNaut miles runAvg speedWind from/ knotsBaromVisibWave heightAir tempDewpointWater temp
2018-Feb-21 08:52N 01°16' E 104°00'1 0.1
2018-Feb-21 01:56N 01°17' E 104°00'1 2.0
2018-Feb-21 01:20N 01°17' E 103°59'2 6.2
2018-Feb-21 01:00N 01°16' E 103°57'2 4.0
2018-Feb-21 00:30N 01°14' E 103°57'3 5.6
2018-Feb-21 00:00N 01°13' E 103°54'4 7.7
2018-Feb-20 23:29N 01°11' E 103°50'4 8.3
2018-Feb-20 23:00N 01°09' E 103°47'5 9.6
2018-Feb-20 22:30N 01°05' E 103°44'4 8.9
2018-Feb-20 22:00N 01°03' E 103°40'5 9.9
2018-Feb-20 21:30N 01°05' E 103°35'510.8
2018-Feb-20 21:00N 01°07' E 103°30'  

Dump ship's entire track history